createdAt,value
2023-04-18T00:00:12.300Z,10.90
2023-04-18T00:02:39.985Z,11.35
2023-04-18T00:05:07.832Z,11.15
2023-04-18T00:07:35.493Z,11.48
2023-04-18T00:10:03.603Z,10.80
2023-04-18T00:12:30.189Z,11.15
2023-04-18T00:14:58.779Z,11.65
2023-04-18T00:17:27.741Z,10.52
2023-04-18T00:19:56.437Z,11.23
2023-04-18T00:22:23.540Z,11.13
2023-04-18T00:24:51.264Z,11.40
2023-04-18T00:27:21.379Z,11.23
2023-04-18T00:29:48.417Z,11.48
2023-04-18T00:32:15.241Z,11.70
2023-04-18T00:34:41.805Z,11.37
2023-04-18T00:37:10.878Z,11.27
2023-04-18T00:39:39.724Z,11.43
2023-04-18T00:42:06.549Z,11.27
2023-04-18T00:44:33.131Z,12.23
2023-04-18T00:47:01.849Z,11.07
2023-04-18T00:49:28.712Z,11.35
2023-04-18T00:51:56.752Z,12.23
2023-04-18T00:54:24.790Z,11.63
2023-04-18T00:56:51.597Z,11.25
2023-04-18T00:59:18.752Z,11.43
2023-04-18T01:01:45.559Z,11.80
2023-04-18T01:04:14.984Z,12.20
2023-04-18T01:06:44.076Z,11.60
2023-04-18T01:09:10.936Z,11.05
2023-04-18T01:11:37.532Z,11.53
2023-04-18T01:14:08.461Z,11.23
2023-04-18T01:16:36.938Z,11.80
2023-04-18T01:19:04.855Z,11.95
2023-04-18T01:21:41.835Z,12.30
2023-04-18T01:24:09.164Z,11.17
2023-04-18T01:26:35.893Z,12.07
2023-04-18T01:29:02.536Z,11.90
2023-04-18T01:31:29.270Z,12.32
2023-04-18T01:33:56.017Z,12.38
2023-04-18T01:36:22.638Z,11.70
2023-04-18T01:38:49.253Z,11.77
2023-04-18T01:41:15.994Z,12.32
2023-04-18T01:43:42.570Z,12.02
2023-04-18T01:46:11.776Z,11.38
2023-04-18T01:48:38.339Z,12.17
2023-04-18T01:51:05.294Z,12.00
2023-04-18T01:53:32.499Z,12.75
2023-04-18T01:55:59.163Z,12.23
2023-04-18T01:58:26.786Z,12.60
2023-04-18T02:00:57.752Z,12.17
2023-04-18T02:03:27.532Z,11.07
2023-04-18T02:05:54.290Z,13.05
2023-04-18T02:08:20.950Z,12.07
2023-04-18T02:10:47.612Z,13.38
2023-04-18T02:13:15.205Z,13.00
2023-04-18T02:15:44.133Z,13.00
2023-04-18T02:18:11.640Z,13.25
2023-04-18T02:20:38.617Z,13.13
2023-04-18T02:23:09.767Z,14.00
2023-04-18T02:25:36.345Z,13.27
2023-04-18T02:28:02.929Z,14.65
2023-04-18T02:30:29.502Z,12.70
2023-04-18T02:32:59.264Z,13.90
2023-04-18T02:35:27.394Z,13.65
2023-04-18T02:37:53.959Z,13.87
2023-04-18T02:40:20.695Z,14.77
2023-04-18T02:42:47.259Z,14.55
2023-04-18T02:45:13.903Z,13.90
2023-04-18T02:47:51.696Z,15.30
2023-04-18T02:50:20.798Z,14.40
2023-04-18T02:52:47.343Z,14.45
2023-04-18T02:55:13.937Z,14.57
2023-04-18T02:57:40.605Z,14.55
2023-04-18T03:00:09.488Z,13.93
2023-04-18T03:02:36.301Z,13.77
2023-04-18T03:05:03.353Z,14.23
2023-04-18T03:07:31.113Z,14.57
2023-04-18T03:09:57.987Z,14.90
2023-04-18T03:12:24.627Z,15.52
2023-04-18T03:14:51.269Z,15.33
2023-04-18T03:17:18.389Z,15.05
2023-04-18T03:19:46.558Z,15.65
2023-04-18T03:22:14.072Z,14.43
2023-04-18T03:24:43.204Z,16.02
2023-04-18T03:27:09.746Z,14.40
2023-04-18T03:29:36.346Z,14.57
2023-04-18T03:32:03.022Z,15.48
2023-04-18T03:34:29.712Z,14.98
2023-04-18T03:36:56.472Z,14.65
2023-04-18T03:39:23.074Z,15.53
2023-04-18T03:41:49.943Z,15.13
2023-04-18T03:44:16.827Z,14.88
2023-04-18T03:46:43.994Z,15.05
2023-04-18T03:49:10.705Z,16.02
2023-04-18T03:51:44.593Z,15.40
2023-04-18T03:54:11.275Z,15.38
2023-04-18T03:56:38.227Z,15.30
2023-04-18T03:59:04.821Z,15.65
2023-04-18T04:01:31.616Z,14.73
2023-04-18T04:04:01.806Z,14.73
2023-04-18T04:06:28.780Z,14.75
2023-04-18T04:08:55.919Z,15.23
2023-04-18T04:11:22.876Z,15.20
2023-04-18T04:13:49.559Z,15.77
2023-04-18T04:16:16.471Z,14.63
2023-04-18T04:18:43.065Z,14.90
2023-04-18T04:21:09.631Z,15.50
2023-04-18T04:23:38.564Z,14.73
2023-04-18T04:26:05.227Z,15.20
2023-04-18T04:28:32.173Z,15.40
2023-04-18T04:30:59.394Z,15.23
2023-04-18T04:33:33.369Z,15.35
2023-04-18T04:36:01.309Z,13.85
2023-04-18T04:38:31.135Z,15.38
2023-04-18T04:40:58.514Z,14.60
2023-04-18T04:43:26.113Z,14.63
2023-04-18T04:45:53.322Z,14.00
2023-04-18T04:48:24.795Z,14.20
2023-04-18T04:50:54.340Z,14.30
2023-04-18T04:53:21.521Z,14.47
2023-04-18T04:55:48.637Z,12.63
2023-04-18T04:58:15.469Z,13.65
2023-04-18T05:00:44.403Z,12.93
2023-04-18T05:03:11.705Z,12.23
2023-04-18T05:05:38.540Z,11.60
2023-04-18T05:08:05.444Z,11.13
2023-04-18T05:10:32.638Z,10.80
2023-04-18T05:12:59.243Z,10.05
2023-04-18T05:15:25.876Z,10.90
2023-04-18T05:17:52.566Z,9.90
2023-04-18T05:20:19.178Z,9.60
2023-04-18T05:22:45.797Z,10.63
2023-04-18T05:25:12.783Z,10.15
2023-04-18T05:27:39.816Z,9.80
2023-04-18T05:30:07.147Z,10.17
2023-04-18T05:32:33.874Z,10.10
2023-04-18T05:35:03.220Z,9.13
2023-04-18T05:37:29.759Z,9.63
2023-04-18T05:40:00.500Z,9.90
2023-04-18T05:42:27.648Z,9.30
2023-04-18T05:44:54.264Z,9.40
2023-04-18T05:47:21.224Z,9.05
2023-04-18T05:49:47.863Z,9.88
2023-04-18T05:52:14.503Z,9.82
2023-04-18T05:54:41.316Z,10.30
2023-04-18T05:57:07.896Z,10.02
2023-04-18T05:59:34.541Z,9.88
2023-04-18T06:02:01.210Z,10.02
2023-04-18T06:04:28.071Z,10.10
2023-04-18T06:06:54.942Z,9.30
2023-04-18T06:09:21.554Z,10.38
2023-04-18T06:11:48.193Z,9.80
2023-04-18T06:14:14.981Z,9.75
2023-04-18T06:16:42.035Z,9.80
2023-04-18T06:19:08.745Z,9.33
2023-04-18T06:21:35.338Z,10.43
2023-04-18T06:24:01.876Z,10.35
2023-04-18T06:26:32.077Z,10.05
2023-04-18T06:28:58.787Z,10.07
2023-04-18T06:31:25.627Z,10.20
2023-04-18T06:33:52.296Z,10.20
2023-04-18T06:36:19.370Z,10.38
2023-04-18T06:38:45.996Z,9.75
2023-04-18T06:41:14.646Z,9.88
2023-04-18T06:43:49.126Z,9.80
2023-04-18T06:46:28.586Z,9.98
2023-04-18T06:48:55.306Z,10.18
2023-04-18T06:51:24.116Z,10.15
2023-04-18T06:53:52.969Z,9.38
2023-04-18T06:56:20.612Z,9.90
2023-04-18T06:58:48.064Z,9.23
2023-04-18T07:01:14.756Z,10.82
2023-04-18T07:03:43.804Z,10.50
2023-04-18T07:06:11.047Z,10.82
2023-04-18T07:08:38.116Z,10.67
2023-04-18T07:11:06.138Z,11.27
2023-04-18T07:13:35.311Z,11.20
2023-04-18T07:16:02.212Z,11.68
2023-04-18T07:18:37.532Z,12.73
2023-04-18T07:21:08.382Z,12.43
2023-04-18T07:23:35.821Z,12.85
2023-04-18T07:26:03.151Z,13.32
2023-04-18T07:28:31.756Z,13.43
2023-04-18T07:31:03.115Z,14.60
2023-04-18T07:33:33.633Z,16.30
2023-04-18T07:36:03.756Z,17.42
2023-04-18T07:38:30.536Z,16.80
2023-04-18T07:40:58.584Z,18.25
2023-04-18T07:43:25.143Z,15.50
2023-04-18T07:45:57.316Z,13.63
2023-04-18T07:48:25.380Z,13.15
2023-04-18T07:50:52.131Z,13.07
2023-04-18T07:53:18.838Z,12.57
2023-04-18T07:55:46.517Z,13.27
2023-04-18T07:58:13.313Z,11.73
2023-04-18T08:00:39.948Z,13.55
2023-04-18T08:03:12.437Z,12.80
2023-04-18T08:05:40.337Z,14.02
2023-04-18T08:08:08.379Z,17.25
2023-04-18T08:10:41.336Z,19.10
2023-04-18T08:13:08.369Z,19.50
2023-04-18T08:15:35.434Z,20.23
2023-04-18T08:18:02.240Z,20.42
2023-04-18T08:20:29.091Z,19.00
2023-04-18T08:25:25.662Z,20.13
2023-04-18T08:27:52.262Z,18.92
2023-04-18T08:30:19.126Z,16.35
2023-04-18T08:32:45.758Z,20.38
2023-04-18T08:35:12.519Z,21.23
2023-04-18T08:37:39.404Z,23.92
2023-04-18T08:40:07.377Z,24.55
2023-04-18T08:42:35.207Z,23.88
2023-04-18T08:45:01.947Z,22.05
2023-04-18T08:47:32.058Z,26.30
2023-04-18T08:49:58.715Z,27.30
2023-04-18T08:52:27.289Z,23.20
2023-04-18T08:54:53.960Z,19.83
2023-04-18T08:57:31.054Z,17.65
2023-04-18T08:59:57.815Z,15.13
2023-04-18T09:02:44.870Z,14.48
2023-04-18T09:05:19.813Z,13.65
2023-04-18T09:07:48.218Z,12.57
2023-04-18T09:10:29.004Z,13.35
2023-04-18T09:12:57.572Z,12.50
2023-04-18T09:15:27.316Z,12.90
2023-04-18T09:17:58.943Z,12.75
2023-04-18T09:20:27.076Z,12.05
2023-04-18T09:22:57.744Z,12.55
2023-04-18T09:25:34.880Z,12.33
2023-04-18T09:28:04.716Z,12.80
2023-04-18T09:30:37.060Z,12.35
2023-04-18T09:33:10.154Z,12.45
2023-04-18T09:35:38.059Z,11.27
2023-04-18T09:38:08.143Z,11.60
2023-04-18T09:40:35.683Z,11.88
2023-04-18T09:43:20.914Z,12.27
2023-04-18T09:45:48.977Z,12.05
2023-04-18T09:48:15.876Z,12.32
2023-04-18T09:50:42.677Z,14.60
2023-04-18T09:53:15.338Z,19.95
2023-04-18T09:55:42.608Z,23.45
2023-04-18T09:58:10.615Z,27.58
2023-04-18T10:00:39.135Z,23.58
2023-04-18T10:03:08.805Z,22.37
2023-04-18T10:05:40.569Z,18.40
2023-04-18T10:08:10.739Z,16.33
2023-04-18T10:10:38.964Z,13.73
2023-04-18T10:13:06.793Z,13.15
2023-04-18T10:15:33.454Z,11.63
2023-04-18T10:18:05.889Z,11.38
2023-04-18T10:20:35.216Z,10.75
2023-04-18T10:23:31.102Z,9.90
2023-04-18T10:25:58.616Z,10.82
2023-04-18T10:28:26.573Z,11.03
2023-04-18T10:30:56.375Z,11.65
2023-04-18T10:36:20.220Z,11.05
2023-04-18T10:38:52.305Z,10.30
2023-04-18T10:41:32.118Z,10.87
2023-04-18T10:44:11.713Z,9.60
2023-04-18T10:46:43.224Z,8.98
2023-04-18T10:49:18.637Z,9.57
2023-04-18T10:51:49.707Z,9.70
2023-04-18T10:54:39.033Z,8.77
2023-04-18T10:57:09.092Z,9.60
2023-04-18T10:59:39.181Z,9.57
2023-04-18T11:02:17.993Z,8.80
2023-04-18T11:04:52.216Z,8.68
2023-04-18T11:07:19.172Z,10.23
2023-04-18T11:09:56.480Z,10.45
2023-04-18T11:12:23.416Z,9.25
2023-04-18T11:14:54.483Z,9.20
2023-04-18T11:17:27.037Z,8.63
2023-04-18T11:20:11.023Z,8.33
2023-04-18T11:22:54.809Z,7.68
2023-04-18T11:25:25.383Z,9.15
2023-04-18T11:27:57.402Z,8.23
2023-04-18T11:30:24.127Z,8.48
2023-04-18T11:32:51.871Z,7.93
2023-04-18T11:35:18.776Z,7.57
2023-04-18T11:37:50.293Z,8.52
2023-04-18T11:40:16.910Z,7.25
2023-04-18T11:42:43.614Z,7.40
2023-04-18T11:45:11.863Z,7.53
2023-04-18T11:47:43.142Z,7.68
2023-04-18T11:50:12.747Z,7.30
2023-04-18T11:52:41.451Z,7.35
2023-04-18T11:55:18.571Z,7.43
2023-04-18T11:57:52.413Z,6.83
2023-04-18T12:00:30.419Z,7.22
2023-04-18T12:02:58.666Z,7.57
2023-04-18T12:05:27.748Z,7.25
2023-04-18T12:07:54.665Z,8.75
2023-04-18T12:10:29.595Z,7.17
2023-04-18T12:13:00.447Z,6.65
2023-04-18T12:15:28.978Z,6.60
2023-04-18T12:18:08.185Z,7.30
2023-04-18T12:20:47.424Z,6.82
2023-04-18T12:23:32.245Z,6.20
2023-04-18T12:26:12.669Z,6.43
2023-04-18T12:28:42.078Z,6.20
2023-04-18T12:31:08.750Z,6.45
2023-04-18T12:33:38.143Z,6.05
2023-04-18T12:36:05.606Z,5.60
2023-04-18T12:38:32.241Z,5.45
2023-04-18T12:40:58.810Z,5.43
2023-04-18T12:43:25.849Z,5.18
2023-04-18T12:45:52.458Z,5.63
2023-04-18T12:48:21.355Z,6.07
2023-04-18T12:50:47.942Z,5.68
2023-04-18T12:53:14.571Z,5.93
2023-04-18T12:55:41.288Z,5.95
2023-04-18T12:58:07.971Z,5.20
2023-04-18T13:00:34.841Z,5.53
2023-04-18T13:03:03.971Z,7.35
2023-04-18T13:05:33.553Z,8.07
2023-04-18T13:10:31.155Z,9.60
2023-04-18T13:12:57.800Z,7.33
2023-04-18T13:15:24.535Z,7.30
2023-04-18T13:17:51.305Z,7.10
2023-04-18T13:20:20.280Z,5.88
2023-04-18T13:22:46.944Z,6.25
2023-04-18T13:25:13.694Z,6.43
2023-04-18T13:27:41.939Z,6.13
2023-04-18T13:30:11.680Z,5.80
2023-04-18T13:32:39.367Z,6.25
2023-04-18T13:35:08.342Z,6.57
2023-04-18T13:37:34.998Z,6.13
2023-04-18T13:40:01.700Z,5.60
2023-04-18T13:42:28.258Z,5.82
2023-04-18T13:44:54.921Z,5.00
2023-04-18T13:47:21.663Z,4.80
2023-04-18T13:49:50.806Z,4.73
2023-04-18T13:52:17.744Z,5.07
2023-04-18T13:54:44.476Z,4.75
2023-04-18T13:57:14.731Z,4.85
2023-04-18T13:59:46.076Z,4.80
2023-04-18T14:02:12.799Z,4.27
2023-04-18T14:04:39.666Z,4.68
2023-04-18T14:07:06.487Z,4.65
2023-04-18T14:09:33.290Z,4.40
2023-04-18T14:11:59.928Z,4.80
2023-04-18T14:14:29.324Z,4.70
2023-04-18T14:16:56.047Z,4.75
2023-04-18T14:19:22.895Z,5.43
2023-04-18T14:21:49.570Z,4.68
2023-04-18T14:24:16.355Z,5.38
2023-04-18T14:26:42.959Z,5.33
2023-04-18T14:29:09.597Z,5.85
2023-04-18T14:31:38.520Z,5.90
2023-04-18T14:34:08.424Z,5.47
2023-04-18T14:36:35.344Z,6.13
2023-04-18T14:39:01.988Z,5.13
2023-04-18T14:41:28.640Z,5.40
2023-04-18T14:43:55.248Z,5.45
2023-04-18T14:46:21.951Z,5.47
2023-04-18T14:48:51.046Z,5.88
2023-04-18T14:51:17.706Z,5.33
2023-04-18T14:53:46.650Z,4.93
2023-04-18T14:56:13.667Z,5.03
2023-04-18T14:58:40.280Z,4.90
2023-04-18T15:01:06.911Z,5.35
2023-04-18T15:03:34.196Z,4.70
2023-04-18T15:06:05.982Z,5.40
2023-04-18T15:08:35.134Z,5.32
2023-04-18T15:11:06.412Z,4.90
2023-04-18T15:13:33.829Z,5.95
2023-04-18T15:16:03.058Z,5.00
2023-04-18T15:18:29.743Z,5.70
2023-04-18T15:20:59.007Z,5.10
2023-04-18T15:23:27.865Z,5.70
2023-04-18T15:25:54.603Z,5.65
2023-04-18T15:28:21.200Z,5.37
2023-04-18T15:30:47.955Z,5.00
2023-04-18T15:33:15.690Z,5.07
2023-04-18T15:35:42.369Z,4.65
2023-04-18T15:38:08.997Z,4.30
2023-04-18T15:40:36.556Z,4.40
2023-04-18T15:43:04.127Z,4.05
2023-04-18T15:45:30.951Z,4.13
2023-04-18T15:47:57.595Z,4.43
2023-04-18T15:50:24.448Z,3.97
2023-04-18T15:52:53.284Z,3.93
2023-04-18T15:55:19.950Z,3.80
2023-04-18T15:57:48.736Z,4.80
2023-04-18T16:00:19.777Z,3.70
2023-04-18T16:02:49.234Z,3.65
2023-04-18T16:05:16.138Z,3.93
2023-04-18T16:07:43.191Z,3.70
2023-04-18T16:10:11.121Z,5.68
2023-04-18T16:12:39.030Z,5.97
2023-04-18T16:15:07.297Z,5.40
2023-04-18T16:17:34.416Z,5.37
2023-04-18T16:20:01.290Z,9.05
2023-04-18T16:22:27.979Z,7.97
2023-04-18T16:24:54.739Z,8.45
2023-04-18T16:27:21.383Z,8.82
2023-04-18T16:29:47.994Z,7.27
2023-04-18T16:32:14.662Z,6.78
2023-04-18T16:34:41.409Z,6.45
2023-04-18T16:37:07.988Z,6.20
2023-04-18T16:39:34.542Z,7.05
2023-04-18T16:42:01.472Z,6.67
2023-04-18T16:44:28.155Z,7.60
2023-04-18T16:46:54.831Z,7.82
2023-04-18T16:49:21.782Z,8.35
2023-04-18T16:51:49.038Z,10.85
2023-04-18T16:54:18.438Z,12.67
2023-04-18T16:56:47.458Z,10.43
2023-04-18T16:59:14.277Z,10.00
2023-04-18T17:01:40.911Z,8.30
2023-04-18T17:04:07.570Z,8.48
2023-04-18T17:06:37.478Z,7.53
2023-04-18T17:09:06.402Z,6.93
2023-04-18T17:11:38.193Z,6.40
2023-04-18T17:14:06.107Z,6.43
2023-04-18T17:16:32.741Z,5.30
2023-04-18T17:18:59.409Z,5.47
2023-04-18T17:21:26.232Z,5.43
2023-04-18T17:23:53.429Z,6.57
2023-04-18T17:26:20.457Z,6.53
2023-04-18T17:28:47.064Z,6.80
2023-04-18T17:31:16.612Z,7.53
2023-04-18T17:33:43.306Z,6.00
2023-04-18T17:36:13.098Z,7.65
2023-04-18T17:38:40.644Z,7.05
2023-04-18T17:41:07.878Z,7.38
2023-04-18T17:43:34.449Z,7.37
2023-04-18T17:46:02.463Z,7.60
2023-04-18T17:48:29.199Z,7.60
2023-04-18T17:50:57.950Z,7.72
2023-04-18T17:53:24.550Z,7.95
2023-04-18T17:55:52.330Z,9.67
2023-04-18T17:58:20.016Z,8.63
2023-04-18T18:00:46.772Z,9.63
2023-04-18T18:03:17.111Z,10.15
2023-04-18T18:05:48.745Z,11.63
2023-04-18T18:08:15.484Z,11.00
2023-04-18T18:10:46.967Z,10.88
2023-04-18T18:13:13.674Z,10.70
2023-04-18T18:15:40.343Z,10.85
2023-04-18T18:18:07.068Z,10.75
2023-04-18T18:20:33.691Z,10.30
2023-04-18T18:23:00.445Z,10.52
2023-04-18T18:25:28.551Z,10.52
2023-04-18T18:27:55.464Z,9.82
2023-04-18T18:30:22.096Z,9.95
2023-04-18T18:32:49.537Z,10.27
2023-04-18T18:35:16.246Z,9.38
2023-04-18T18:37:42.954Z,9.77
2023-04-18T18:40:13.144Z,10.23
2023-04-18T18:42:40.078Z,10.25
2023-04-18T18:45:07.602Z,10.07
2023-04-18T18:47:39.650Z,9.82
2023-04-18T18:50:07.255Z,10.13
2023-04-18T18:52:34.234Z,9.43
2023-04-18T18:55:01.432Z,9.82
2023-04-18T18:57:28.147Z,8.67
2023-04-18T18:59:55.845Z,9.18
2023-04-18T19:02:22.991Z,11.15
2023-04-18T19:04:49.839Z,9.45
2023-04-18T19:07:18.980Z,10.00
2023-04-18T19:09:46.488Z,9.73
2023-04-18T19:12:15.939Z,9.30
2023-04-18T19:14:46.851Z,10.32
2023-04-18T19:17:13.449Z,9.68
2023-04-18T19:19:40.001Z,10.18
2023-04-18T19:22:06.809Z,9.93
2023-04-18T19:24:35.789Z,9.88
2023-04-18T19:27:02.985Z,9.88
2023-04-18T19:29:32.460Z,10.10
2023-04-18T19:31:59.480Z,9.43
2023-04-18T19:34:26.163Z,10.10
2023-04-18T19:36:55.106Z,10.07
2023-04-18T19:39:24.045Z,9.65
2023-04-18T19:41:50.873Z,10.43
2023-04-18T19:44:17.595Z,10.45
2023-04-18T19:46:44.204Z,10.33
2023-04-18T19:49:13.473Z,10.27
2023-04-18T19:51:40.779Z,9.77
2023-04-18T19:54:07.486Z,9.43
2023-04-18T19:56:34.128Z,10.25
2023-04-18T19:59:00.810Z,9.70
2023-04-18T20:01:27.720Z,10.55
2023-04-18T20:03:57.536Z,10.02
2023-04-18T20:06:26.578Z,9.52
2023-04-18T20:08:56.042Z,10.32
2023-04-18T20:11:24.863Z,10.33
2023-04-18T20:13:56.571Z,9.60
2023-04-18T20:16:24.001Z,9.23
2023-04-18T20:18:52.294Z,9.40
2023-04-18T20:21:22.616Z,9.23
2023-04-18T20:23:49.225Z,9.87
2023-04-18T20:26:15.822Z,9.45
2023-04-18T20:28:44.880Z,10.18
2023-04-18T20:31:12.005Z,9.77
2023-04-18T20:33:38.660Z,8.80
2023-04-18T20:36:08.324Z,8.97
2023-04-18T20:38:34.974Z,9.13
2023-04-18T20:41:02.116Z,9.38
2023-04-18T20:43:37.327Z,8.70
2023-04-18T20:46:12.714Z,8.65
2023-04-18T20:48:40.279Z,8.43
2023-04-18T20:51:09.242Z,8.52
2023-04-18T20:53:35.793Z,9.20
2023-04-18T20:56:05.796Z,8.70
2023-04-18T20:58:32.444Z,8.15
2023-04-18T21:00:59.051Z,8.10
2023-04-18T21:03:25.903Z,8.55
2023-04-18T21:05:54.677Z,8.60
2023-04-18T21:08:21.245Z,8.32
2023-04-18T21:10:47.845Z,8.23
2023-04-18T21:13:14.473Z,8.03
2023-04-18T21:15:42.541Z,7.70
2023-04-18T21:18:09.463Z,8.20
2023-04-18T21:20:36.916Z,8.20
2023-04-18T21:23:03.546Z,8.30
2023-04-18T21:25:30.224Z,8.13
2023-04-18T21:27:59.257Z,7.93
2023-04-18T21:30:25.824Z,8.40
2023-04-18T21:32:52.450Z,8.68
2023-04-18T21:35:20.722Z,8.13
2023-04-18T21:37:48.014Z,7.90
2023-04-18T21:40:14.878Z,8.52
2023-04-18T21:42:41.528Z,8.10
2023-04-18T21:45:09.727Z,8.05
2023-04-18T21:47:36.494Z,8.25
2023-04-18T21:50:06.351Z,8.07
2023-04-18T21:52:35.145Z,7.88
2023-04-18T21:55:01.893Z,8.23
2023-04-18T21:57:28.542Z,8.65
2023-04-18T21:59:56.983Z,8.52
2023-04-18T22:02:24.781Z,8.80
2023-04-18T22:04:51.441Z,9.43
2023-04-18T22:07:18.849Z,9.35
2023-04-18T22:09:48.336Z,9.63
2023-04-18T22:12:15.655Z,8.35
2023-04-18T22:14:48.180Z,8.50
2023-04-18T22:17:14.954Z,8.68
2023-04-18T22:19:41.642Z,7.72
2023-04-18T22:22:08.245Z,8.35
2023-04-18T22:24:34.827Z,9.25
2023-04-18T22:27:02.855Z,8.50
2023-04-18T22:29:29.443Z,8.23
2023-04-18T22:31:56.025Z,7.93
2023-04-18T22:34:22.637Z,8.70
2023-04-18T22:36:49.269Z,8.68
2023-04-18T22:39:16.052Z,7.90
2023-04-18T22:41:42.604Z,8.45
2023-04-18T22:44:09.182Z,8.07
2023-04-18T22:46:38.540Z,7.93
2023-04-18T22:49:05.701Z,8.60
2023-04-18T22:51:32.597Z,8.00
2023-04-18T22:54:01.566Z,8.68
2023-04-18T22:56:28.173Z,8.52
2023-04-18T22:58:54.747Z,9.07
2023-04-18T23:01:21.367Z,8.15
2023-04-18T23:03:48.184Z,8.70
2023-04-18T23:06:16.338Z,8.55
2023-04-18T23:08:45.105Z,8.63
2023-04-18T23:11:14.229Z,8.95
2023-04-18T23:13:40.787Z,9.13
2023-04-18T23:16:07.958Z,8.77
2023-04-18T23:18:36.814Z,9.30
2023-04-18T23:21:03.538Z,8.88
2023-04-18T23:23:32.533Z,8.73
2023-04-18T23:25:59.164Z,9.40
2023-04-18T23:28:25.764Z,9.03
2023-04-18T23:30:52.596Z,9.13
2023-04-18T23:33:19.194Z,9.38
2023-04-18T23:35:48.758Z,8.90
2023-04-18T23:38:15.498Z,9.30
2023-04-18T23:40:42.148Z,8.97
2023-04-18T23:43:11.045Z,9.40
2023-04-18T23:45:37.639Z,10.15
2023-04-18T23:48:04.297Z,9.38
2023-04-18T23:50:30.883Z,9.95
2023-04-18T23:52:59.725Z,10.00
2023-04-18T23:55:26.322Z,10.07
2023-04-18T23:57:52.966Z,9.32
